sensor_id;sensor_type;location;lat;lon;timestamp;P1;durP1;ratioP1;P2;durP2;ratioP2
31920;SDS011;66485;52.128;4.436;2023-04-01T00:02:16;4.60;;;1.30;;
31920;SDS011;66485;52.128;4.436;2023-04-01T00:04:41;4.05;;;1.23;;
31920;SDS011;66485;52.128;4.436;2023-04-01T00:07:08;5.15;;;1.38;;
31920;SDS011;66485;52.128;4.436;2023-04-01T00:09:34;7.22;;;1.48;;
31920;SDS011;66485;52.128;4.436;2023-04-01T00:12:00;6.97;;;1.70;;
31920;SDS011;66485;52.128;4.436;2023-04-01T00:14:25;5.45;;;1.70;;
31920;SDS011;66485;52.128;4.436;2023-04-01T00:16:51;8.32;;;1.60;;
31920;SDS011;66485;52.128;4.436;2023-04-01T00:19:17;5.68;;;1.58;;
31920;SDS011;66485;52.128;4.436;2023-04-01T00:21:42;6.68;;;1.35;;
31920;SDS011;66485;52.128;4.436;2023-04-01T00:24:08;6.03;;;1.45;;
31920;SDS011;66485;52.128;4.436;2023-04-01T00:26:33;6.32;;;1.65;;
31920;SDS011;66485;52.128;4.436;2023-04-01T00:28:59;7.25;;;1.67;;
31920;SDS011;66485;52.128;4.436;2023-04-01T00:31:25;8.02;;;1.77;;
31920;SDS011;66485;52.128;4.436;2023-04-01T00:33:51;8.45;;;1.58;;
31920;SDS011;66485;52.128;4.436;2023-04-01T00:36:17;6.20;;;1.50;;
31920;SDS011;66485;52.128;4.436;2023-04-01T00:38:45;6.78;;;1.48;;
31920;SDS011;66485;52.128;4.436;2023-04-01T00:41:11;4.78;;;1.48;;
31920;SDS011;66485;52.128;4.436;2023-04-01T00:43:40;5.50;;;1.50;;
31920;SDS011;66485;52.128;4.436;2023-04-01T00:46:06;4.70;;;1.30;;
31920;SDS011;66485;52.128;4.436;2023-04-01T00:48:35;5.75;;;1.48;;
31920;SDS011;66485;52.128;4.436;2023-04-01T00:51:07;5.40;;;1.20;;
31920;SDS011;66485;52.128;4.436;2023-04-01T00:53:37;7.75;;;1.75;;
31920;SDS011;66485;52.128;4.436;2023-04-01T00:56:07;4.28;;;1.42;;
31920;SDS011;66485;52.128;4.436;2023-04-01T00:58:40;4.72;;;1.40;;
31920;SDS011;66485;52.128;4.436;2023-04-01T01:01:09;5.40;;;1.40;;
31920;SDS011;66485;52.128;4.436;2023-04-01T01:03:35;5.57;;;1.30;;
31920;SDS011;66485;52.128;4.436;2023-04-01T01:11:20;8.50;;;1.73;;
31920;SDS011;66485;52.128;4.436;2023-04-01T01:16:33;7.40;;;1.80;;
31920;SDS011;66485;52.128;4.436;2023-04-01T01:19:08;4.93;;;1.38;;
31920;SDS011;66485;52.128;4.436;2023-04-01T01:27:24;8.57;;;1.90;;
31920;SDS011;66485;52.128;4.436;2023-04-01T01:35:31;6.43;;;1.65;;
31920;SDS011;66485;52.128;4.436;2023-04-01T01:38:02;4.90;;;1.50;;
31920;SDS011;66485;52.128;4.436;2023-04-01T01:40:31;7.05;;;1.83;;
31920;SDS011;66485;52.128;4.436;2023-04-01T01:42:59;7.05;;;1.80;;
31920;SDS011;66485;52.128;4.436;2023-04-01T01:45:28;4.45;;;1.40;;
31920;SDS011;66485;52.128;4.436;2023-04-01T01:47:56;4.13;;;1.17;;
31920;SDS011;66485;52.128;4.436;2023-04-01T01:50:24;9.43;;;1.60;;
31920;SDS011;66485;52.128;4.436;2023-04-01T01:52:59;4.55;;;1.70;;
31920;SDS011;66485;52.128;4.436;2023-04-01T01:55:30;5.13;;;1.50;;
31920;SDS011;66485;52.128;4.436;2023-04-01T01:58:02;5.20;;;1.23;;
31920;SDS011;66485;52.128;4.436;2023-04-01T02:00:33;6.85;;;1.65;;
31920;SDS011;66485;52.128;4.436;2023-04-01T02:02:59;4.40;;;1.10;;
31920;SDS011;66485;52.128;4.436;2023-04-01T02:05:26;3.90;;;1.48;;
31920;SDS011;66485;52.128;4.436;2023-04-01T02:07:57;5.00;;;1.60;;
31920;SDS011;66485;52.128;4.436;2023-04-01T02:10:27;4.30;;;1.45;;
31920;SDS011;66485;52.128;4.436;2023-04-01T02:12:57;7.53;;;2.00;;
31920;SDS011;66485;52.128;4.436;2023-04-01T02:15:25;3.55;;;1.15;;
31920;SDS011;66485;52.128;4.436;2023-04-01T02:17:55;4.68;;;1.30;;
31920;SDS011;66485;52.128;4.436;2023-04-01T02:20:22;5.28;;;1.75;;
31920;SDS011;66485;52.128;4.436;2023-04-01T02:22:53;7.82;;;1.70;;
31920;SDS011;66485;52.128;4.436;2023-04-01T02:25:22;5.15;;;1.15;;
31920;SDS011;66485;52.128;4.436;2023-04-01T02:27:51;4.60;;;1.10;;
31920;SDS011;66485;52.128;4.436;2023-04-01T02:30:20;4.68;;;1.15;;
31920;SDS011;66485;52.128;4.436;2023-04-01T02:32:46;3.80;;;1.08;;
31920;SDS011;66485;52.128;4.436;2023-04-01T02:35:12;5.82;;;1.63;;
31920;SDS011;66485;52.128;4.436;2023-04-01T02:37:40;4.88;;;1.27;;
31920;SDS011;66485;52.128;4.436;2023-04-01T02:40:08;3.95;;;1.30;;
31920;SDS011;66485;52.128;4.436;2023-04-01T02:42:36;5.82;;;1.30;;
31920;SDS011;66485;52.128;4.436;2023-04-01T02:45:01;4.13;;;1.10;;
31920;SDS011;66485;52.128;4.436;2023-04-01T02:47:27;6.60;;;1.40;;
31920;SDS011;66485;52.128;4.436;2023-04-01T02:49:52;6.07;;;1.53;;
31920;SDS011;66485;52.128;4.436;2023-04-01T02:52:23;4.10;;;1.50;;
31920;SDS011;66485;52.128;4.436;2023-04-01T02:54:49;3.63;;;1.25;;
31920;SDS011;66485;52.128;4.436;2023-04-01T02:57:15;5.00;;;1.10;;
31920;SDS011;66485;52.128;4.436;2023-04-01T02:59:40;3.83;;;1.13;;
31920;SDS011;66485;52.128;4.436;2023-04-01T03:02:05;4.60;;;1.17;;
31920;SDS011;66485;52.128;4.436;2023-04-01T03:04:31;3.33;;;1.00;;
31920;SDS011;66485;52.128;4.436;2023-04-01T03:06:57;3.20;;;0.90;;
31920;SDS011;66485;52.128;4.436;2023-04-01T03:09:22;3.22;;;0.98;;
31920;SDS011;66485;52.128;4.436;2023-04-01T03:11:48;4.65;;;1.15;;
31920;SDS011;66485;52.128;4.436;2023-04-01T03:14:13;3.90;;;1.02;;
31920;SDS011;66485;52.128;4.436;2023-04-01T03:16:38;3.05;;;1.60;;
31920;SDS011;66485;52.128;4.436;2023-04-01T03:19:03;4.15;;;0.90;;
31920;SDS011;66485;52.128;4.436;2023-04-01T03:21:29;4.53;;;1.20;;
31920;SDS011;66485;52.128;4.436;2023-04-01T03:23:54;4.15;;;1.40;;
31920;SDS011;66485;52.128;4.436;2023-04-01T03:26:19;3.85;;;1.30;;
31920;SDS011;66485;52.128;4.436;2023-04-01T03:28:46;6.32;;;1.42;;
31920;SDS011;66485;52.128;4.436;2023-04-01T03:31:12;4.55;;;1.30;;
31920;SDS011;66485;52.128;4.436;2023-04-01T03:33:38;2.60;;;0.98;;
31920;SDS011;66485;52.128;4.436;2023-04-01T03:36:03;2.58;;;0.98;;
31920;SDS011;66485;52.128;4.436;2023-04-01T03:38:31;4.32;;;1.40;;
31920;SDS011;66485;52.128;4.436;2023-04-01T03:40:58;4.07;;;1.13;;
31920;SDS011;66485;52.128;4.436;2023-04-01T03:43:23;4.07;;;1.17;;
31920;SDS011;66485;52.128;4.436;2023-04-01T03:45:49;5.20;;;1.30;;
31920;SDS011;66485;52.128;4.436;2023-04-01T03:48:15;3.58;;;1.10;;
31920;SDS011;66485;52.128;4.436;2023-04-01T03:50:41;5.07;;;1.35;;
31920;SDS011;66485;52.128;4.436;2023-04-01T03:53:06;2.35;;;0.90;;
31920;SDS011;66485;52.128;4.436;2023-04-01T03:55:32;4.43;;;1.13;;
31920;SDS011;66485;52.128;4.436;2023-04-01T03:57:58;2.53;;;0.82;;
31920;SDS011;66485;52.128;4.436;2023-04-01T04:00:23;4.55;;;1.10;;
31920;SDS011;66485;52.128;4.436;2023-04-01T04:02:48;4.18;;;0.98;;
31920;SDS011;66485;52.128;4.436;2023-04-01T04:05:14;3.13;;;1.00;;
31920;SDS011;66485;52.128;4.436;2023-04-01T04:07:39;4.47;;;1.13;;
31920;SDS011;66485;52.128;4.436;2023-04-01T04:10:04;3.80;;;1.50;;
31920;SDS011;66485;52.128;4.436;2023-04-01T04:12:31;2.25;;;0.77;;
31920;SDS011;66485;52.128;4.436;2023-04-01T04:14:56;4.22;;;1.13;;
31920;SDS011;66485;52.128;4.436;2023-04-01T04:17:22;3.28;;;0.98;;
31920;SDS011;66485;52.128;4.436;2023-04-01T04:19:47;2.60;;;1.00;;
31920;SDS011;66485;52.128;4.436;2023-04-01T04:22:12;5.13;;;1.38;;
31920;SDS011;66485;52.128;4.436;2023-04-01T04:24:37;2.83;;;0.95;;
31920;SDS011;66485;52.128;4.436;2023-04-01T04:27:03;2.95;;;0.82;;
31920;SDS011;66485;52.128;4.436;2023-04-01T04:29:29;3.45;;;1.05;;
31920;SDS011;66485;52.128;4.436;2023-04-01T04:31:55;3.55;;;1.13;;
31920;SDS011;66485;52.128;4.436;2023-04-01T04:34:20;2.83;;;0.98;;
31920;SDS011;66485;52.128;4.436;2023-04-01T04:36:47;3.83;;;1.00;;
31920;SDS011;66485;52.128;4.436;2023-04-01T04:39:13;3.65;;;1.10;;
31920;SDS011;66485;52.128;4.436;2023-04-01T04:41:39;2.80;;;1.00;;
31920;SDS011;66485;52.128;4.436;2023-04-01T04:44:04;2.63;;;0.82;;
31920;SDS011;66485;52.128;4.436;2023-04-01T04:46:30;2.28;;;0.70;;
31920;SDS011;66485;52.128;4.436;2023-04-01T04:48:55;2.92;;;0.90;;
31920;SDS011;66485;52.128;4.436;2023-04-01T04:51:21;2.47;;;1.15;;
31920;SDS011;66485;52.128;4.436;2023-04-01T04:53:47;3.17;;;1.10;;
31920;SDS011;66485;52.128;4.436;2023-04-01T04:56:17;1.58;;;0.70;;
31920;SDS011;66485;52.128;4.436;2023-04-01T04:58:46;2.78;;;0.90;;
31920;SDS011;66485;52.128;4.436;2023-04-01T05:01:13;2.53;;;0.90;;
31920;SDS011;66485;52.128;4.436;2023-04-01T05:03:39;2.15;;;0.80;;
31920;SDS011;66485;52.128;4.436;2023-04-01T05:06:05;2.33;;;0.93;;
31920;SDS011;66485;52.128;4.436;2023-04-01T05:08:32;1.45;;;0.68;;
31920;SDS011;66485;52.128;4.436;2023-04-01T05:10:58;3.33;;;1.00;;
31920;SDS011;66485;52.128;4.436;2023-04-01T05:13:25;1.90;;;0.80;;
31920;SDS011;66485;52.128;4.436;2023-04-01T05:15:50;3.45;;;0.90;;
31920;SDS011;66485;52.128;4.436;2023-04-01T05:18:15;2.50;;;1.02;;
31920;SDS011;66485;52.128;4.436;2023-04-01T05:20:48;2.60;;;0.88;;
31920;SDS011;66485;52.128;4.436;2023-04-01T05:23:17;5.25;;;0.93;;
31920;SDS011;66485;52.128;4.436;2023-04-01T05:25:45;5.28;;;1.13;;
31920;SDS011;66485;52.128;4.436;2023-04-01T05:28:11;2.78;;;0.95;;
31920;SDS011;66485;52.128;4.436;2023-04-01T05:30:38;4.07;;;1.05;;
31920;SDS011;66485;52.128;4.436;2023-04-01T05:33:04;1.88;;;0.85;;
31920;SDS011;66485;52.128;4.436;2023-04-01T05:35:30;2.03;;;0.70;;
31920;SDS011;66485;52.128;4.436;2023-04-01T05:37:55;1.40;;;0.77;;
31920;SDS011;66485;52.128;4.436;2023-04-01T05:40:20;2.72;;;1.00;;
31920;SDS011;66485;52.128;4.436;2023-04-01T05:42:46;3.55;;;1.00;;
31920;SDS011;66485;52.128;4.436;2023-04-01T05:45:11;1.83;;;0.82;;
31920;SDS011;66485;52.128;4.436;2023-04-01T05:47:36;1.90;;;0.98;;
31920;SDS011;66485;52.128;4.436;2023-04-01T05:50:01;2.58;;;0.93;;
31920;SDS011;66485;52.128;4.436;2023-04-01T05:52:27;3.03;;;0.90;;
31920;SDS011;66485;52.128;4.436;2023-04-01T05:54:52;2.60;;;0.90;;
31920;SDS011;66485;52.128;4.436;2023-04-01T05:57:18;2.70;;;1.00;;
31920;SDS011;66485;52.128;4.436;2023-04-01T05:59:43;2.67;;;0.93;;
31920;SDS011;66485;52.128;4.436;2023-04-01T06:02:09;4.10;;;0.90;;
31920;SDS011;66485;52.128;4.436;2023-04-01T06:04:39;1.30;;;0.70;;
31920;SDS011;66485;52.128;4.436;2023-04-01T06:07:09;2.10;;;0.70;;
31920;SDS011;66485;52.128;4.436;2023-04-01T06:09:36;2.00;;;0.80;;
31920;SDS011;66485;52.128;4.436;2023-04-01T06:14:57;1.23;;;0.70;;
31920;SDS011;66485;52.128;4.436;2023-04-01T06:17:55;2.10;;;0.95;;
31920;SDS011;66485;52.128;4.436;2023-04-01T06:23:36;3.53;;;1.30;;
31920;SDS011;66485;52.128;4.436;2023-04-01T06:35:02;2.70;;;0.68;;
31920;SDS011;66485;52.128;4.436;2023-04-01T06:40:36;1.63;;;0.85;;
31920;SDS011;66485;52.128;4.436;2023-04-01T06:43:19;2.13;;;0.93;;
31920;SDS011;66485;52.128;4.436;2023-04-01T06:57:24;2.65;;;1.00;;
31920;SDS011;66485;52.128;4.436;2023-04-01T07:00:04;2.45;;;0.90;;
31920;SDS011;66485;52.128;4.436;2023-04-01T07:02:41;2.25;;;0.90;;
31920;SDS011;66485;52.128;4.436;2023-04-01T07:05:12;2.17;;;0.70;;
31920;SDS011;66485;52.128;4.436;2023-04-01T07:13:13;4.57;;;1.05;;
31920;SDS011;66485;52.128;4.436;2023-04-01T07:15:46;1.63;;;0.90;;
31920;SDS011;66485;52.128;4.436;2023-04-01T07:18:22;1.00;;;0.60;;
31920;SDS011;66485;52.128;4.436;2023-04-01T07:20:53;2.80;;;0.82;;
31920;SDS011;66485;52.128;4.436;2023-04-01T07:23:24;2.95;;;1.00;;
31920;SDS011;66485;52.128;4.436;2023-04-01T07:25:53;3.75;;;1.10;;
31920;SDS011;66485;52.128;4.436;2023-04-01T07:28:23;2.50;;;1.10;;
31920;SDS011;66485;52.128;4.436;2023-04-01T07:30:53;2.47;;;1.08;;
31920;SDS011;66485;52.128;4.436;2023-04-01T07:36:08;3.33;;;0.95;;
31920;SDS011;66485;52.128;4.436;2023-04-01T07:41:34;2.65;;;0.90;;
31920;SDS011;66485;52.128;4.436;2023-04-01T07:50:00;1.65;;;0.80;;
31920;SDS011;66485;52.128;4.436;2023-04-01T07:52:35;1.92;;;0.77;;
31920;SDS011;66485;52.128;4.436;2023-04-01T07:55:10;1.65;;;0.77;;
31920;SDS011;66485;52.128;4.436;2023-04-01T07:57:50;1.85;;;0.73;;
31920;SDS011;66485;52.128;4.436;2023-04-01T08:00:27;2.05;;;0.80;;
31920;SDS011;66485;52.128;4.436;2023-04-01T08:05:48;2.03;;;0.80;;
31920;SDS011;66485;52.128;4.436;2023-04-01T08:08:26;2.20;;;1.00;;
31920;SDS011;66485;52.128;4.436;2023-04-01T08:19:07;2.03;;;0.90;;
31920;SDS011;66485;52.128;4.436;2023-04-01T08:21:45;3.78;;;0.90;;
31920;SDS011;66485;52.128;4.436;2023-04-01T08:24:37;1.67;;;0.90;;
31920;SDS011;66485;52.128;4.436;2023-04-01T08:27:34;1.25;;;0.80;;
31920;SDS011;66485;52.128;4.436;2023-04-01T08:30:04;2.72;;;1.10;;
31920;SDS011;66485;52.128;4.436;2023-04-01T08:32:42;3.28;;;1.00;;
31920;SDS011;66485;52.128;4.436;2023-04-01T08:35:34;1.77;;;1.00;;
31920;SDS011;66485;52.128;4.436;2023-04-01T08:38:06;2.35;;;0.95;;
31920;SDS011;66485;52.128;4.436;2023-04-01T08:40:48;3.03;;;1.15;;
31920;SDS011;66485;52.128;4.436;2023-04-01T08:45:48;3.08;;;1.15;;
31920;SDS011;66485;52.128;4.436;2023-04-01T08:48:41;1.95;;;1.10;;
31920;SDS011;66485;52.128;4.436;2023-04-01T08:51:28;3.42;;;1.30;;
31920;SDS011;66485;52.128;4.436;2023-04-01T08:56:47;2.80;;;1.17;;
31920;SDS011;66485;52.128;4.436;2023-04-01T09:02:16;2.25;;;1.02;;
31920;SDS011;66485;52.128;4.436;2023-04-01T09:10:27;3.58;;;1.17;;
31920;SDS011;66485;52.128;4.436;2023-04-01T09:19:25;4.10;;;1.33;;
31920;SDS011;66485;52.128;4.436;2023-04-01T09:27:35;3.58;;;1.10;;
31920;SDS011;66485;52.128;4.436;2023-04-01T09:36:22;2.60;;;1.20;;
31920;SDS011;66485;52.128;4.436;2023-04-01T09:47:28;3.10;;;1.02;;
31920;SDS011;66485;52.128;4.436;2023-04-01T09:52:34;1.88;;;1.10;;
31920;SDS011;66485;52.128;4.436;2023-04-01T10:20:45;4.53;;;1.23;;
31920;SDS011;66485;52.128;4.436;2023-04-01T10:26:43;2.15;;;1.10;;
31920;SDS011;66485;52.128;4.436;2023-04-01T10:35:26;4.13;;;1.30;;
31920;SDS011;66485;52.128;4.436;2023-04-01T10:38:26;4.38;;;1.48;;
31920;SDS011;66485;52.128;4.436;2023-04-01T10:55:37;3.17;;;1.58;;
31920;SDS011;66485;52.128;4.436;2023-04-01T11:01:19;3.63;;;1.60;;
31920;SDS011;66485;52.128;4.436;2023-04-01T11:14:59;6.78;;;1.88;;
31920;SDS011;66485;52.128;4.436;2023-04-01T11:17:42;3.53;;;1.52;;
31920;SDS011;66485;52.128;4.436;2023-04-01T11:33:54;2.72;;;1.50;;
31920;SDS011;66485;52.128;4.436;2023-04-01T12:02:20;2.20;;;1.30;;
31920;SDS011;66485;52.128;4.436;2023-04-01T12:21:22;3.28;;;1.45;;
31920;SDS011;66485;52.128;4.436;2023-04-01T12:29:35;3.53;;;1.63;;
31920;SDS011;66485;52.128;4.436;2023-04-01T12:32:17;4.25;;;1.58;;
31920;SDS011;66485;52.128;4.436;2023-04-01T12:35:10;4.47;;;1.45;;
31920;SDS011;66485;52.128;4.436;2023-04-01T12:40:51;3.05;;;1.40;;
31920;SDS011;66485;52.128;4.436;2023-04-01T12:58:03;2.63;;;1.40;;
31920;SDS011;66485;52.128;4.436;2023-04-01T13:08:42;3.13;;;1.40;;
31920;SDS011;66485;52.128;4.436;2023-04-01T13:14:12;3.70;;;1.52;;
31920;SDS011;66485;52.128;4.436;2023-04-01T13:17:07;4.10;;;1.58;;
31920;SDS011;66485;52.128;4.436;2023-04-01T13:19:49;4.18;;;1.50;;
31920;SDS011;66485;52.128;4.436;2023-04-01T13:22:30;3.10;;;1.70;;
31920;SDS011;66485;52.128;4.436;2023-04-01T13:25:22;4.93;;;1.60;;
31920;SDS011;66485;52.128;4.436;2023-04-01T13:28:00;2.92;;;1.50;;
31920;SDS011;66485;52.128;4.436;2023-04-01T13:30:43;2.97;;;1.38;;
31920;SDS011;66485;52.128;4.436;2023-04-01T13:33:17;4.63;;;1.27;;
31920;SDS011;66485;52.128;4.436;2023-04-01T13:44:32;3.05;;;1.50;;
31920;SDS011;66485;52.128;4.436;2023-04-01T13:50:23;2.95;;;1.52;;
31920;SDS011;66485;52.128;4.436;2023-04-01T14:08:06;2.50;;;1.27;;
31920;SDS011;66485;52.128;4.436;2023-04-01T14:26:50;4.47;;;1.63;;
31920;SDS011;66485;52.128;4.436;2023-04-01T14:32:12;4.57;;;1.90;;
31920;SDS011;66485;52.128;4.436;2023-04-01T14:35:19;3.28;;;1.30;;
31920;SDS011;66485;52.128;4.436;2023-04-01T14:46:23;3.35;;;1.40;;
31920;SDS011;66485;52.128;4.436;2023-04-01T14:48:59;3.85;;;1.45;;
31920;SDS011;66485;52.128;4.436;2023-04-01T14:51:50;3.53;;;1.50;;
31920;SDS011;66485;52.128;4.436;2023-04-01T14:54:21;3.30;;;1.30;;
31920;SDS011;66485;52.128;4.436;2023-04-01T14:57:05;4.32;;;1.50;;
31920;SDS011;66485;52.128;4.436;2023-04-01T15:02:14;2.97;;;1.30;;
31920;SDS011;66485;52.128;4.436;2023-04-01T15:21:38;2.10;;;1.20;;
31920;SDS011;66485;52.128;4.436;2023-04-01T15:29:40;3.10;;;1.35;;
31920;SDS011;66485;52.128;4.436;2023-04-01T15:46:14;4.03;;;1.33;;
31920;SDS011;66485;52.128;4.436;2023-04-01T15:52:21;2.78;;;1.30;;
31920;SDS011;66485;52.128;4.436;2023-04-01T15:54:45;2.80;;;1.27;;
31920;SDS011;66485;52.128;4.436;2023-04-01T16:00:18;3.47;;;1.60;;
31920;SDS011;66485;52.128;4.436;2023-04-01T16:02:48;4.18;;;1.33;;
31920;SDS011;66485;52.128;4.436;2023-04-01T16:08:09;2.92;;;1.20;;
31920;SDS011;66485;52.128;4.436;2023-04-01T16:10:58;2.50;;;1.10;;
31920;SDS011;66485;52.128;4.436;2023-04-01T16:24:33;2.60;;;1.23;;
31920;SDS011;66485;52.128;4.436;2023-04-01T16:32:51;2.85;;;1.30;;
31920;SDS011;66485;52.128;4.436;2023-04-01T16:43:26;4.05;;;1.65;;
31920;SDS011;66485;52.128;4.436;2023-04-01T16:56:54;3.25;;;1.30;;
31920;SDS011;66485;52.128;4.436;2023-04-01T16:59:29;2.00;;;1.23;;
31920;SDS011;66485;52.128;4.436;2023-04-01T17:04:41;3.28;;;1.05;;
31920;SDS011;66485;52.128;4.436;2023-04-01T17:07:15;3.97;;;1.13;;
31920;SDS011;66485;52.128;4.436;2023-04-01T17:15:00;3.10;;;1.00;;
31920;SDS011;66485;52.128;4.436;2023-04-01T17:27:59;2.28;;;1.00;;
31920;SDS011;66485;52.128;4.436;2023-04-01T17:30:43;2.75;;;1.20;;
31920;SDS011;66485;52.128;4.436;2023-04-01T17:39:11;5.00;;;1.35;;
31920;SDS011;66485;52.128;4.436;2023-04-01T17:50:21;2.72;;;1.20;;
31920;SDS011;66485;52.128;4.436;2023-04-01T17:58:20;3.92;;;1.20;;
31920;SDS011;66485;52.128;4.436;2023-04-01T18:00:50;3.08;;;1.10;;
31920;SDS011;66485;52.128;4.436;2023-04-01T18:05:52;2.50;;;0.93;;
31920;SDS011;66485;52.128;4.436;2023-04-01T18:22:43;3.97;;;1.48;;
31920;SDS011;66485;52.128;4.436;2023-04-01T18:25:26;2.03;;;1.00;;
31920;SDS011;66485;52.128;4.436;2023-04-01T18:30:50;1.70;;;1.10;;
31920;SDS011;66485;52.128;4.436;2023-04-01T18:39:06;3.28;;;1.30;;
31920;SDS011;66485;52.128;4.436;2023-04-01T18:41:53;2.55;;;1.02;;
31920;SDS011;66485;52.128;4.436;2023-04-01T18:50:26;2.40;;;1.13;;
31920;SDS011;66485;52.128;4.436;2023-04-01T18:53:09;1.50;;;0.85;;
31920;SDS011;66485;52.128;4.436;2023-04-01T18:55:46;2.58;;;1.05;;
31920;SDS011;66485;52.128;4.436;2023-04-01T18:58:17;2.13;;;0.98;;
31920;SDS011;66485;52.128;4.436;2023-04-01T19:01:11;4.72;;;1.13;;
31920;SDS011;66485;52.128;4.436;2023-04-01T19:06:44;1.95;;;1.10;;
31920;SDS011;66485;52.128;4.436;2023-04-01T19:09:46;2.25;;;1.10;;
31920;SDS011;66485;52.128;4.436;2023-04-01T19:12:23;2.45;;;0.80;;
31920;SDS011;66485;52.128;4.436;2023-04-01T19:14:54;2.42;;;1.02;;
31920;SDS011;66485;52.128;4.436;2023-04-01T19:20:25;1.63;;;0.90;;
31920;SDS011;66485;52.128;4.436;2023-04-01T19:28:25;3.42;;;1.05;;
31920;SDS011;66485;52.128;4.436;2023-04-01T19:38:53;1.55;;;0.70;;
31920;SDS011;66485;52.128;4.436;2023-04-01T19:41:54;1.90;;;0.80;;
31920;SDS011;66485;52.128;4.436;2023-04-01T19:44:50;1.55;;;0.82;;
31920;SDS011;66485;52.128;4.436;2023-04-01T19:53:04;2.00;;;0.82;;
31920;SDS011;66485;52.128;4.436;2023-04-01T19:55:46;2.72;;;1.30;;
31920;SDS011;66485;52.128;4.436;2023-04-01T19:58:18;1.73;;;0.82;;
31920;SDS011;66485;52.128;4.436;2023-04-01T20:01:14;0.95;;;0.65;;
31920;SDS011;66485;52.128;4.436;2023-04-01T20:03:53;1.50;;;0.75;;
31920;SDS011;66485;52.128;4.436;2023-04-01T20:06:24;1.40;;;0.90;;
31920;SDS011;66485;52.128;4.436;2023-04-01T20:11:52;1.58;;;0.95;;
31920;SDS011;66485;52.128;4.436;2023-04-01T20:20:00;1.67;;;0.80;;
31920;SDS011;66485;52.128;4.436;2023-04-01T20:36:06;1.83;;;0.80;;
31920;SDS011;66485;52.128;4.436;2023-04-01T21:02:48;1.58;;;1.00;;
31920;SDS011;66485;52.128;4.436;2023-04-01T21:08:17;1.50;;;0.80;;
31920;SDS011;66485;52.128;4.436;2023-04-01T21:14:01;1.70;;;1.00;;
31920;SDS011;66485;52.128;4.436;2023-04-01T21:16:57;1.63;;;0.80;;
31920;SDS011;66485;52.128;4.436;2023-04-01T21:25:38;2.22;;;1.00;;
31920;SDS011;66485;52.128;4.436;2023-04-01T21:28:20;1.48;;;0.90;;
31920;SDS011;66485;52.128;4.436;2023-04-01T21:52:49;1.45;;;0.90;;
31920;SDS011;66485;52.128;4.436;2023-04-01T21:58:21;1.88;;;0.93;;
31920;SDS011;66485;52.128;4.436;2023-04-01T22:07:02;1.45;;;0.80;;
31920;SDS011;66485;52.128;4.436;2023-04-01T22:12:48;2.25;;;0.85;;
31920;SDS011;66485;52.128;4.436;2023-04-01T22:23:47;1.30;;;0.77;;
31920;SDS011;66485;52.128;4.436;2023-04-01T22:26:44;1.50;;;0.85;;
31920;SDS011;66485;52.128;4.436;2023-04-01T22:32:20;1.55;;;0.82;;
31920;SDS011;66485;52.128;4.436;2023-04-01T22:34:57;1.20;;;0.80;;
31920;SDS011;66485;52.128;4.436;2023-04-01T22:42:59;1.83;;;1.15;;
31920;SDS011;66485;52.128;4.436;2023-04-01T22:56:20;3.15;;;1.05;;
31920;SDS011;66485;52.128;4.436;2023-04-01T22:58:56;1.50;;;0.95;;
31920;SDS011;66485;52.128;4.436;2023-04-01T23:01:29;1.98;;;1.00;;
31920;SDS011;66485;52.128;4.436;2023-04-01T23:03:59;1.08;;;0.75;;
31920;SDS011;66485;52.128;4.436;2023-04-01T23:06:31;1.60;;;0.90;;
31920;SDS011;66485;52.128;4.436;2023-04-01T23:09:05;2.00;;;1.00;;
31920;SDS011;66485;52.128;4.436;2023-04-01T23:11:37;1.27;;;0.82;;
31920;SDS011;66485;52.128;4.436;2023-04-01T23:16:48;1.40;;;0.80;;
31920;SDS011;66485;52.128;4.436;2023-04-01T23:19:26;1.73;;;0.90;;
31920;SDS011;66485;52.128;4.436;2023-04-01T23:24:41;1.90;;;0.80;;
31920;SDS011;66485;52.128;4.436;2023-04-01T23:30:01;1.17;;;0.82;;
31920;SDS011;66485;52.128;4.436;2023-04-01T23:32:28;1.45;;;0.82;;
31920;SDS011;66485;52.128;4.436;2023-04-01T23:34:55;2.65;;;1.10;;
31920;SDS011;66485;52.128;4.436;2023-04-01T23:37:23;2.08;;;0.93;;
31920;SDS011;66485;52.128;4.436;2023-04-01T23:39:51;3.15;;;1.02;;
31920;SDS011;66485;52.128;4.436;2023-04-01T23:42:19;2.78;;;1.00;;
31920;SDS011;66485;52.128;4.436;2023-04-01T23:44:46;1.95;;;1.00;;
31920;SDS011;66485;52.128;4.436;2023-04-01T23:47:15;1.75;;;0.90;;
31920;SDS011;66485;52.128;4.436;2023-04-01T23:49:45;1.42;;;0.90;;
31920;SDS011;66485;52.128;4.436;2023-04-01T23:54:52;1.80;;;1.20;;
31920;SDS011;66485;52.128;4.436;2023-04-01T23:57:23;1.50;;;0.95;;
